RJST(METAR)
06/28 22:00
METAR RJST 281300Z 26004KT 9999 FEW010 17/15 Q1014 RMK 1ST010 A2997=
戻る
トップページへ戻る
IMOC Co,.Ltd.